sensor_id;sensor_type;location;lat;lon;timestamp;temperature;humidity
33699;DHT22;20032;52.436;13.312;2024-02-04T00:01:27;8.60;99.90
33699;DHT22;20032;52.436;13.312;2024-02-04T00:03:52;8.60;99.90
33699;DHT22;20032;52.436;13.312;2024-02-04T00:06:18;8.60;99.90
33699;DHT22;20032;52.436;13.312;2024-02-04T00:08:43;8.60;99.90
33699;DHT22;20032;52.436;13.312;2024-02-04T00:11:09;8.50;99.90
33699;DHT22;20032;52.436;13.312;2024-02-04T00:13:38;8.50;99.90
33699;DHT22;20032;52.436;13.312;2024-02-04T00:16:04;8.40;99.90
33699;DHT22;20032;52.436;13.312;2024-02-04T00:18:30;8.40;99.90
33699;DHT22;20032;52.436;13.312;2024-02-04T00:20:56;8.30;99.90
33699;DHT22;20032;52.436;13.312;2024-02-04T00:23:21;8.30;99.90
33699;DHT22;20032;52.436;13.312;2024-02-04T00:25:47;8.30;99.90
33699;DHT22;20032;52.436;13.312;2024-02-04T00:28:12;8.30;99.90
33699;DHT22;20032;52.436;13.312;2024-02-04T00:30:38;8.20;99.90
33699;DHT22;20032;52.436;13.312;2024-02-04T00:33:04;8.20;99.90
33699;DHT22;20032;52.436;13.312;2024-02-04T00:35:30;8.10;99.90
33699;DHT22;20032;52.436;13.312;2024-02-04T00:37:56;8.10;99.90
33699;DHT22;20032;52.436;13.312;2024-02-04T00:40:22;8.10;99.90
33699;DHT22;20032;52.436;13.312;2024-02-04T00:42:47;8.10;99.90
33699;DHT22;20032;52.436;13.312;2024-02-04T00:45:13;8.10;99.90
33699;DHT22;20032;52.436;13.312;2024-02-04T00:47:39;8.10;99.90
33699;DHT22;20032;52.436;13.312;2024-02-04T00:50:04;8.10;99.90
33699;DHT22;20032;52.436;13.312;2024-02-04T00:52:30;8.00;99.90
33699;DHT22;20032;52.436;13.312;2024-02-04T00:54:56;8.00;99.90
33699;DHT22;20032;52.436;13.312;2024-02-04T00:57:21;8.00;99.90
33699;DHT22;20032;52.436;13.312;2024-02-04T00:59:47;7.90;99.90
33699;DHT22;20032;52.436;13.312;2024-02-04T01:02:12;7.90;99.90
33699;DHT22;20032;52.436;13.312;2024-02-04T01:04:38;7.80;99.90
33699;DHT22;20032;52.436;13.312;2024-02-04T01:07:04;7.80;99.90
33699;DHT22;20032;52.436;13.312;2024-02-04T01:09:30;7.70;99.90
33699;DHT22;20032;52.436;13.312;2024-02-04T01:11:56;7.80;99.90
33699;DHT22;20032;52.436;13.312;2024-02-04T01:14:22;7.80;99.90
33699;DHT22;20032;52.436;13.312;2024-02-04T01:16:47;7.80;99.90
33699;DHT22;20032;52.436;13.312;2024-02-04T01:19:13;7.70;99.90
33699;DHT22;20032;52.436;13.312;2024-02-04T01:21:38;7.70;99.90
33699;DHT22;20032;52.436;13.312;2024-02-04T01:24:04;7.70;99.90
33699;DHT22;20032;52.436;13.312;2024-02-04T01:26:30;7.70;99.90
33699;DHT22;20032;52.436;13.312;2024-02-04T01:28:55;7.60;99.90
33699;DHT22;20032;52.436;13.312;2024-02-04T01:31:21;7.50;99.90
33699;DHT22;20032;52.436;13.312;2024-02-04T01:33:46;7.50;99.90
33699;DHT22;20032;52.436;13.312;2024-02-04T01:36:12;7.40;99.90
33699;DHT22;20032;52.436;13.312;2024-02-04T01:38:38;7.50;99.90
33699;DHT22;20032;52.436;13.312;2024-02-04T01:41:04;7.50;99.90
33699;DHT22;20032;52.436;13.312;2024-02-04T01:43:29;7.40;99.90
33699;DHT22;20032;52.436;13.312;2024-02-04T01:45:56;7.40;99.90
33699;DHT22;20032;52.436;13.312;2024-02-04T01:48:22;7.30;99.90
33699;DHT22;20032;52.436;13.312;2024-02-04T01:50:50;7.40;99.90
33699;DHT22;20032;52.436;13.312;2024-02-04T01:53:17;7.30;99.90
33699;DHT22;20032;52.436;13.312;2024-02-04T01:55:45;7.30;99.90
33699;DHT22;20032;52.436;13.312;2024-02-04T01:58:11;7.30;99.90
33699;DHT22;20032;52.436;13.312;2024-02-04T02:00:36;7.30;99.90
33699;DHT22;20032;52.436;13.312;2024-02-04T02:03:05;7.30;99.90
33699;DHT22;20032;52.436;13.312;2024-02-04T02:05:31;7.40;99.90
33699;DHT22;20032;52.436;13.312;2024-02-04T02:07:57;7.30;99.90
33699;DHT22;20032;52.436;13.312;2024-02-04T02:10:23;7.40;99.90
33699;DHT22;20032;52.436;13.312;2024-02-04T02:12:59;7.30;99.90
33699;DHT22;20032;52.436;13.312;2024-02-04T02:15:30;7.30;99.90
33699;DHT22;20032;52.436;13.312;2024-02-04T02:18:01;7.20;99.90
33699;DHT22;20032;52.436;13.312;2024-02-04T02:20:55;7.30;99.90
33699;DHT22;20032;52.436;13.312;2024-02-04T02:23:22;7.20;99.90
33699;DHT22;20032;52.436;13.312;2024-02-04T02:25:52;7.20;99.90
33699;DHT22;20032;52.436;13.312;2024-02-04T02:28:18;7.20;99.90
33699;DHT22;20032;52.436;13.312;2024-02-04T02:30:44;7.20;99.90
33699;DHT22;20032;52.436;13.312;2024-02-04T02:33:09;7.20;99.90
33699;DHT22;20032;52.436;13.312;2024-02-04T02:35:35;7.20;99.90
33699;DHT22;20032;52.436;13.312;2024-02-04T02:38:25;7.10;99.90
33699;DHT22;20032;52.436;13.312;2024-02-04T02:40:54;7.10;99.90
33699;DHT22;20032;52.436;13.312;2024-02-04T02:43:24;7.00;99.90
33699;DHT22;20032;52.436;13.312;2024-02-04T02:45:50;7.00;99.90
33699;DHT22;20032;52.436;13.312;2024-02-04T02:48:16;7.00;99.90
33699;DHT22;20032;52.436;13.312;2024-02-04T02:50:41;7.00;99.90
33699;DHT22;20032;52.436;13.312;2024-02-04T02:53:07;7.00;99.90
33699;DHT22;20032;52.436;13.312;2024-02-04T02:55:32;7.00;99.90
33699;DHT22;20032;52.436;13.312;2024-02-04T02:57:58;7.00;99.90
33699;DHT22;20032;52.436;13.312;2024-02-04T03:00:23;7.00;99.90
33699;DHT22;20032;52.436;13.312;2024-02-04T03:02:49;7.00;99.90
33699;DHT22;20032;52.436;13.312;2024-02-04T03:05:16;7.00;99.90
33699;DHT22;20032;52.436;13.312;2024-02-04T03:07:41;7.00;99.90
33699;DHT22;20032;52.436;13.312;2024-02-04T03:10:08;7.00;99.90
33699;DHT22;20032;52.436;13.312;2024-02-04T03:12:33;7.00;99.90
33699;DHT22;20032;52.436;13.312;2024-02-04T03:14:59;7.10;99.90
33699;DHT22;20032;52.436;13.312;2024-02-04T03:17:25;7.10;99.90
33699;DHT22;20032;52.436;13.312;2024-02-04T03:19:51;7.10;99.90
33699;DHT22;20032;52.436;13.312;2024-02-04T03:22:20;7.10;99.90
33699;DHT22;20032;52.436;13.312;2024-02-04T03:24:47;7.20;99.90
33699;DHT22;20032;52.436;13.312;2024-02-04T03:27:12;7.20;99.90
33699;DHT22;20032;52.436;13.312;2024-02-04T03:29:38;7.30;99.90
33699;DHT22;20032;52.436;13.312;2024-02-04T03:32:03;7.30;99.90
33699;DHT22;20032;52.436;13.312;2024-02-04T03:34:29;7.30;99.90
33699;DHT22;20032;52.436;13.312;2024-02-04T03:36:54;7.30;99.90
33699;DHT22;20032;52.436;13.312;2024-02-04T03:39:20;7.30;99.90
33699;DHT22;20032;52.436;13.312;2024-02-04T03:41:45;7.30;99.90
33699;DHT22;20032;52.436;13.312;2024-02-04T03:44:11;7.30;99.90
33699;DHT22;20032;52.436;13.312;2024-02-04T03:46:36;7.30;99.90
33699;DHT22;20032;52.436;13.312;2024-02-04T03:49:06;7.30;99.90
33699;DHT22;20032;52.436;13.312;2024-02-04T03:51:31;7.30;99.90
33699;DHT22;20032;52.436;13.312;2024-02-04T03:53:57;7.30;99.90
33699;DHT22;20032;52.436;13.312;2024-02-04T03:56:22;7.30;99.90
33699;DHT22;20032;52.436;13.312;2024-02-04T03:58:48;7.30;99.90
33699;DHT22;20032;52.436;13.312;2024-02-04T04:01:13;7.30;99.90
33699;DHT22;20032;52.436;13.312;2024-02-04T04:03:40;7.30;99.90
33699;DHT22;20032;52.436;13.312;2024-02-04T04:06:06;7.20;99.90
33699;DHT22;20032;52.436;13.312;2024-02-04T04:08:31;7.20;99.90
33699;DHT22;20032;52.436;13.312;2024-02-04T04:10:57;7.20;99.90
33699;DHT22;20032;52.436;13.312;2024-02-04T04:13:22;7.10;99.90
33699;DHT22;20032;52.436;13.312;2024-02-04T04:15:48;7.10;99.90
33699;DHT22;20032;52.436;13.312;2024-02-04T04:18:13;7.10;99.90
33699;DHT22;20032;52.436;13.312;2024-02-04T04:20:40;7.10;99.90
33699;DHT22;20032;52.436;13.312;2024-02-04T04:23:05;7.10;99.90
33699;DHT22;20032;52.436;13.312;2024-02-04T04:25:31;7.00;99.90
33699;DHT22;20032;52.436;13.312;2024-02-04T04:27:56;7.00;99.90
33699;DHT22;20032;52.436;13.312;2024-02-04T04:30:23;7.00;99.90
33699;DHT22;20032;52.436;13.312;2024-02-04T04:32:49;6.90;99.90
33699;DHT22;20032;52.436;13.312;2024-02-04T04:35:14;6.90;99.90
33699;DHT22;20032;52.436;13.312;2024-02-04T04:37:39;6.80;99.90
33699;DHT22;20032;52.436;13.312;2024-02-04T04:40:05;6.80;99.90
33699;DHT22;20032;52.436;13.312;2024-02-04T04:42:31;6.70;99.90
33699;DHT22;20032;52.436;13.312;2024-02-04T04:44:56;6.70;99.90
33699;DHT22;20032;52.436;13.312;2024-02-04T04:47:23;6.80;99.90
33699;DHT22;20032;52.436;13.312;2024-02-04T04:49:49;6.70;99.90
33699;DHT22;20032;52.436;13.312;2024-02-04T04:52:14;6.70;99.90
33699;DHT22;20032;52.436;13.312;2024-02-04T04:54:40;6.70;99.90
33699;DHT22;20032;52.436;13.312;2024-02-04T04:57:06;6.70;99.90
33699;DHT22;20032;52.436;13.312;2024-02-04T04:59:31;6.70;99.90
33699;DHT22;20032;52.436;13.312;2024-02-04T05:01:57;6.70;99.90
33699;DHT22;20032;52.436;13.312;2024-02-04T05:04:22;6.60;99.90
33699;DHT22;20032;52.436;13.312;2024-02-04T05:06:50;6.70;99.90
33699;DHT22;20032;52.436;13.312;2024-02-04T05:09:17;6.60;99.90
33699;DHT22;20032;52.436;13.312;2024-02-04T05:11:43;6.60;99.90
33699;DHT22;20032;52.436;13.312;2024-02-04T05:14:09;6.60;99.90
33699;DHT22;20032;52.436;13.312;2024-02-04T05:16:35;6.60;99.90
33699;DHT22;20032;52.436;13.312;2024-02-04T05:19:01;6.60;99.90
33699;DHT22;20032;52.436;13.312;2024-02-04T05:21:27;6.60;99.90
33699;DHT22;20032;52.436;13.312;2024-02-04T05:23:52;6.60;99.90
33699;DHT22;20032;52.436;13.312;2024-02-04T05:26:18;6.60;99.90
33699;DHT22;20032;52.436;13.312;2024-02-04T05:28:44;6.60;99.90
33699;DHT22;20032;52.436;13.312;2024-02-04T05:31:10;6.60;99.90
33699;DHT22;20032;52.436;13.312;2024-02-04T05:33:35;6.60;99.90
33699;DHT22;20032;52.436;13.312;2024-02-04T05:36:01;6.60;99.90
33699;DHT22;20032;52.436;13.312;2024-02-04T05:38:26;6.60;99.90
33699;DHT22;20032;52.436;13.312;2024-02-04T05:40:52;6.60;99.90
33699;DHT22;20032;52.436;13.312;2024-02-04T05:43:17;6.60;99.90
33699;DHT22;20032;52.436;13.312;2024-02-04T05:45:43;6.60;99.90
33699;DHT22;20032;52.436;13.312;2024-02-04T05:48:09;6.60;99.90
33699;DHT22;20032;52.436;13.312;2024-02-04T05:50:35;6.60;99.90
33699;DHT22;20032;52.436;13.312;2024-02-04T05:53:00;6.60;99.90
33699;DHT22;20032;52.436;13.312;2024-02-04T05:55:26;6.70;99.90
33699;DHT22;20032;52.436;13.312;2024-02-04T05:57:51;6.70;99.90
33699;DHT22;20032;52.436;13.312;2024-02-04T06:00:17;6.70;99.90
33699;DHT22;20032;52.436;13.312;2024-02-04T06:02:43;6.70;99.90
33699;DHT22;20032;52.436;13.312;2024-02-04T06:05:15;6.70;99.90
33699;DHT22;20032;52.436;13.312;2024-02-04T06:07:42;6.70;99.90
33699;DHT22;20032;52.436;13.312;2024-02-04T06:10:09;6.70;99.90
33699;DHT22;20032;52.436;13.312;2024-02-04T06:12:35;6.80;99.90
33699;DHT22;20032;52.436;13.312;2024-02-04T06:15:00;6.80;99.90
33699;DHT22;20032;52.436;13.312;2024-02-04T06:17:26;6.80;99.90
33699;DHT22;20032;52.436;13.312;2024-02-04T06:19:51;6.90;99.90
33699;DHT22;20032;52.436;13.312;2024-02-04T06:22:17;6.90;99.90
33699;DHT22;20032;52.436;13.312;2024-02-04T06:24:42;6.90;99.90
33699;DHT22;20032;52.436;13.312;2024-02-04T06:27:10;7.00;99.90
33699;DHT22;20032;52.436;13.312;2024-02-04T06:29:36;7.00;99.90
33699;DHT22;20032;52.436;13.312;2024-02-04T06:32:02;7.00;99.90
33699;DHT22;20032;52.436;13.312;2024-02-04T06:34:28;6.90;99.90
33699;DHT22;20032;52.436;13.312;2024-02-04T06:36:54;6.90;99.90
33699;DHT22;20032;52.436;13.312;2024-02-04T06:39:20;6.90;99.90
33699;DHT22;20032;52.436;13.312;2024-02-04T06:41:45;6.90;99.90
33699;DHT22;20032;52.436;13.312;2024-02-04T06:44:11;6.90;99.90
33699;DHT22;20032;52.436;13.312;2024-02-04T06:46:37;6.90;99.90
33699;DHT22;20032;52.436;13.312;2024-02-04T06:49:02;6.90;99.90
33699;DHT22;20032;52.436;13.312;2024-02-04T06:51:28;7.00;99.90
33699;DHT22;20032;52.436;13.312;2024-02-04T06:53:53;6.90;99.90
33699;DHT22;20032;52.436;13.312;2024-02-04T06:56:19;6.90;99.90
33699;DHT22;20032;52.436;13.312;2024-02-04T06:58:44;6.90;99.90
33699;DHT22;20032;52.436;13.312;2024-02-04T07:01:10;6.90;99.90
33699;DHT22;20032;52.436;13.312;2024-02-04T07:03:36;6.90;99.90
33699;DHT22;20032;52.436;13.312;2024-02-04T07:06:01;6.90;99.90
33699;DHT22;20032;52.436;13.312;2024-02-04T07:08:27;6.90;99.90
33699;DHT22;20032;52.436;13.312;2024-02-04T07:10:53;6.90;99.90
33699;DHT22;20032;52.436;13.312;2024-02-04T07:13:18;7.00;99.90
33699;DHT22;20032;52.436;13.312;2024-02-04T07:15:45;7.00;99.90
33699;DHT22;20032;52.436;13.312;2024-02-04T07:18:10;7.00;99.90
33699;DHT22;20032;52.436;13.312;2024-02-04T07:20:39;7.00;99.90
33699;DHT22;20032;52.436;13.312;2024-02-04T07:23:05;7.10;99.90
33699;DHT22;20032;52.436;13.312;2024-02-04T07:25:31;7.10;99.90
33699;DHT22;20032;52.436;13.312;2024-02-04T07:27:57;7.10;99.90
33699;DHT22;20032;52.436;13.312;2024-02-04T07:30:23;7.10;99.90
33699;DHT22;20032;52.436;13.312;2024-02-04T07:32:49;7.10;99.90
33699;DHT22;20032;52.436;13.312;2024-02-04T07:35:17;7.10;99.90
33699;DHT22;20032;52.436;13.312;2024-02-04T07:37:42;7.10;99.90
33699;DHT22;20032;52.436;13.312;2024-02-04T07:40:08;7.20;99.90
33699;DHT22;20032;52.436;13.312;2024-02-04T07:42:34;7.20;99.90
33699;DHT22;20032;52.436;13.312;2024-02-04T07:44:59;7.20;99.90
33699;DHT22;20032;52.436;13.312;2024-02-04T07:47:24;7.20;99.90
33699;DHT22;20032;52.436;13.312;2024-02-04T07:49:50;7.20;99.90
33699;DHT22;20032;52.436;13.312;2024-02-04T07:52:16;7.30;99.90
33699;DHT22;20032;52.436;13.312;2024-02-04T07:54:41;7.20;99.90
33699;DHT22;20032;52.436;13.312;2024-02-04T07:57:08;7.20;99.90
33699;DHT22;20032;52.436;13.312;2024-02-04T07:59:35;7.30;99.90
33699;DHT22;20032;52.436;13.312;2024-02-04T08:02:01;7.30;99.90
33699;DHT22;20032;52.436;13.312;2024-02-04T08:04:26;7.30;99.90
33699;DHT22;20032;52.436;13.312;2024-02-04T08:06:53;7.30;99.90
33699;DHT22;20032;52.436;13.312;2024-02-04T08:09:19;7.30;99.90
33699;DHT22;20032;52.436;13.312;2024-02-04T08:11:44;7.40;99.90
33699;DHT22;20032;52.436;13.312;2024-02-04T08:14:10;7.40;99.90
33699;DHT22;20032;52.436;13.312;2024-02-04T08:16:35;7.40;99.90
33699;DHT22;20032;52.436;13.312;2024-02-04T08:19:01;7.40;99.90
33699;DHT22;20032;52.436;13.312;2024-02-04T08:21:26;7.50;99.90
33699;DHT22;20032;52.436;13.312;2024-02-04T08:23:52;7.50;99.90
33699;DHT22;20032;52.436;13.312;2024-02-04T08:26:17;7.50;99.90
33699;DHT22;20032;52.436;13.312;2024-02-04T08:28:43;7.50;99.90
33699;DHT22;20032;52.436;13.312;2024-02-04T08:31:09;7.60;99.90
33699;DHT22;20032;52.436;13.312;2024-02-04T08:33:35;7.60;99.90
33699;DHT22;20032;52.436;13.312;2024-02-04T08:36:01;7.60;99.90
33699;DHT22;20032;52.436;13.312;2024-02-04T08:38:27;7.60;99.90
33699;DHT22;20032;52.436;13.312;2024-02-04T08:40:52;7.70;99.90
33699;DHT22;20032;52.436;13.312;2024-02-04T08:43:18;7.60;99.90
33699;DHT22;20032;52.436;13.312;2024-02-04T08:45:44;7.70;99.90
33699;DHT22;20032;52.436;13.312;2024-02-04T08:48:10;7.70;99.90
33699;DHT22;20032;52.436;13.312;2024-02-04T08:50:35;7.70;99.90
33699;DHT22;20032;52.436;13.312;2024-02-04T08:53:01;7.70;99.90
33699;DHT22;20032;52.436;13.312;2024-02-04T08:55:26;7.70;99.90
33699;DHT22;20032;52.436;13.312;2024-02-04T08:57:52;7.70;99.90
33699;DHT22;20032;52.436;13.312;2024-02-04T09:00:19;7.70;99.90
33699;DHT22;20032;52.436;13.312;2024-02-04T09:02:44;7.80;99.90
33699;DHT22;20032;52.436;13.312;2024-02-04T09:05:11;7.80;99.90
33699;DHT22;20032;52.436;13.312;2024-02-04T09:07:37;7.80;99.90
33699;DHT22;20032;52.436;13.312;2024-02-04T09:10:04;7.80;99.90
33699;DHT22;20032;52.436;13.312;2024-02-04T09:12:30;7.80;99.90
33699;DHT22;20032;52.436;13.312;2024-02-04T09:14:56;7.80;99.90
33699;DHT22;20032;52.436;13.312;2024-02-04T09:17:21;7.90;99.90
33699;DHT22;20032;52.436;13.312;2024-02-04T09:19:47;7.90;99.90
33699;DHT22;20032;52.436;13.312;2024-02-04T09:22:12;7.90;99.90
33699;DHT22;20032;52.436;13.312;2024-02-04T09:24:38;7.90;99.90
33699;DHT22;20032;52.436;13.312;2024-02-04T09:27:04;7.90;99.90
33699;DHT22;20032;52.436;13.312;2024-02-04T09:29:30;8.00;99.90
33699;DHT22;20032;52.436;13.312;2024-02-04T09:31:55;8.00;99.90
33699;DHT22;20032;52.436;13.312;2024-02-04T09:34:21;8.00;99.90
33699;DHT22;20032;52.436;13.312;2024-02-04T09:36:47;8.10;99.90
33699;DHT22;20032;52.436;13.312;2024-02-04T09:39:12;8.10;99.90
33699;DHT22;20032;52.436;13.312;2024-02-04T09:41:38;8.20;99.90
33699;DHT22;20032;52.436;13.312;2024-02-04T09:44:04;8.30;99.90
33699;DHT22;20032;52.436;13.312;2024-02-04T09:46:31;8.30;99.90
33699;DHT22;20032;52.436;13.312;2024-02-04T09:48:56;8.40;99.90
33699;DHT22;20032;52.436;13.312;2024-02-04T09:51:22;8.50;99.90
33699;DHT22;20032;52.436;13.312;2024-02-04T09:53:52;8.50;99.90
33699;DHT22;20032;52.436;13.312;2024-02-04T09:56:19;8.50;99.90
33699;DHT22;20032;52.436;13.312;2024-02-04T09:58:47;8.60;99.90
33699;DHT22;20032;52.436;13.312;2024-02-04T10:01:14;8.60;99.90
33699;DHT22;20032;52.436;13.312;2024-02-04T10:03:41;8.60;99.90
33699;DHT22;20032;52.436;13.312;2024-02-04T10:06:07;8.60;99.90
33699;DHT22;20032;52.436;13.312;2024-02-04T10:08:33;8.60;99.90
33699;DHT22;20032;52.436;13.312;2024-02-04T10:10:59;8.60;99.90
33699;DHT22;20032;52.436;13.312;2024-02-04T10:13:25;8.60;99.90
33699;DHT22;20032;52.436;13.312;2024-02-04T10:15:51;8.70;99.90
33699;DHT22;20032;52.436;13.312;2024-02-04T10:18:17;8.70;99.90
33699;DHT22;20032;52.436;13.312;2024-02-04T10:20:43;8.60;99.90
33699;DHT22;20032;52.436;13.312;2024-02-04T10:23:08;8.70;99.90
33699;DHT22;20032;52.436;13.312;2024-02-04T10:25:34;8.70;99.90
33699;DHT22;20032;52.436;13.312;2024-02-04T10:27:59;8.80;99.90
33699;DHT22;20032;52.436;13.312;2024-02-04T10:30:25;8.80;99.90
33699;DHT22;20032;52.436;13.312;2024-02-04T10:32:51;8.80;99.90
33699;DHT22;20032;52.436;13.312;2024-02-04T10:35:17;8.90;99.90
33699;DHT22;20032;52.436;13.312;2024-02-04T10:37:45;8.90;99.90
33699;DHT22;20032;52.436;13.312;2024-02-04T10:40:10;8.90;99.90
33699;DHT22;20032;52.436;13.312;2024-02-04T10:42:38;8.90;99.90
33699;DHT22;20032;52.436;13.312;2024-02-04T10:45:08;8.80;99.90
33699;DHT22;20032;52.436;13.312;2024-02-04T10:47:37;8.80;99.90
33699;DHT22;20032;52.436;13.312;2024-02-04T10:50:04;8.80;99.90
33699;DHT22;20032;52.436;13.312;2024-02-04T10:52:35;8.80;99.90
33699;DHT22;20032;52.436;13.312;2024-02-04T10:55:03;8.90;99.90
33699;DHT22;20032;52.436;13.312;2024-02-04T10:57:30;8.80;99.90
33699;DHT22;20032;52.436;13.312;2024-02-04T10:59:56;8.90;99.90
33699;DHT22;20032;52.436;13.312;2024-02-04T11:02:24;8.80;99.90
33699;DHT22;20032;52.436;13.312;2024-02-04T11:04:50;8.90;99.90
33699;DHT22;20032;52.436;13.312;2024-02-04T11:07:17;8.90;99.90
33699;DHT22;20032;52.436;13.312;2024-02-04T11:09:45;8.90;99.90
33699;DHT22;20032;52.436;13.312;2024-02-04T11:12:15;8.90;99.90
33699;DHT22;20032;52.436;13.312;2024-02-04T11:14:43;8.90;99.90
33699;DHT22;20032;52.436;13.312;2024-02-04T11:17:37;8.90;99.90
33699;DHT22;20032;52.436;13.312;2024-02-04T11:22:52;8.90;99.90
33699;DHT22;20032;52.436;13.312;2024-02-04T11:26:08;9.00;99.90
33699;DHT22;20032;52.436;13.312;2024-02-04T11:28:22;9.00;99.90
33699;DHT22;20032;52.436;13.312;2024-02-04T11:30:49;9.00;99.90
33699;DHT22;20032;52.436;13.312;2024-02-04T11:33:19;8.90;99.90
33699;DHT22;20032;52.436;13.312;2024-02-04T11:35:45;8.90;99.90
33699;DHT22;20032;52.436;13.312;2024-02-04T11:38:11;8.90;99.90
33699;DHT22;20032;52.436;13.312;2024-02-04T11:40:39;9.00;99.90
33699;DHT22;20032;52.436;13.312;2024-02-04T11:43:10;9.00;99.90
33699;DHT22;20032;52.436;13.312;2024-02-04T11:45:43;9.00;99.90
33699;DHT22;20032;52.436;13.312;2024-02-04T11:48:10;8.90;99.90
33699;DHT22;20032;52.436;13.312;2024-02-04T11:50:36;9.00;99.90
33699;DHT22;20032;52.436;13.312;2024-02-04T11:53:11;9.10;99.90
33699;DHT22;20032;52.436;13.312;2024-02-04T11:55:39;9.00;99.90
33699;DHT22;20032;52.436;13.312;2024-02-04T11:58:05;9.10;99.90
33699;DHT22;20032;52.436;13.312;2024-02-04T12:00:33;9.10;99.90
33699;DHT22;20032;52.436;13.312;2024-02-04T12:03:00;9.00;99.90
33699;DHT22;20032;52.436;13.312;2024-02-04T12:05:27;8.90;99.90
33699;DHT22;20032;52.436;13.312;2024-02-04T12:07:53;8.90;99.90
33699;DHT22;20032;52.436;13.312;2024-02-04T12:10:19;9.00;99.90
33699;DHT22;20032;52.436;13.312;2024-02-04T12:12:46;9.00;99.90
33699;DHT22;20032;52.436;13.312;2024-02-04T12:15:12;8.90;99.90
33699;DHT22;20032;52.436;13.312;2024-02-04T12:17:39;8.90;99.90
33699;DHT22;20032;52.436;13.312;2024-02-04T12:20:05;9.00;99.90
33699;DHT22;20032;52.436;13.312;2024-02-04T12:22:32;9.00;99.90
33699;DHT22;20032;52.436;13.312;2024-02-04T12:24:58;9.00;99.90
33699;DHT22;20032;52.436;13.312;2024-02-04T12:27:24;9.00;99.90
33699;DHT22;20032;52.436;13.312;2024-02-04T12:29:51;8.90;99.90
33699;DHT22;20032;52.436;13.312;2024-02-04T12:32:18;8.80;99.90
33699;DHT22;20032;52.436;13.312;2024-02-04T12:34:48;8.80;99.90
33699;DHT22;20032;52.436;13.312;2024-02-04T12:37:14;8.80;99.90
33699;DHT22;20032;52.436;13.312;2024-02-04T12:39:39;8.80;99.90
33699;DHT22;20032;52.436;13.312;2024-02-04T12:42:05;8.80;99.90
33699;DHT22;20032;52.436;13.312;2024-02-04T12:44:31;8.80;99.90
33699;DHT22;20032;52.436;13.312;2024-02-04T12:46:57;8.80;99.90
33699;DHT22;20032;52.436;13.312;2024-02-04T12:49:25;8.80;99.90
33699;DHT22;20032;52.436;13.312;2024-02-04T12:51:52;8.80;99.90
33699;DHT22;20032;52.436;13.312;2024-02-04T12:54:18;8.80;99.90
33699;DHT22;20032;52.436;13.312;2024-02-04T12:56:53;8.80;99.90
33699;DHT22;20032;52.436;13.312;2024-02-04T12:59:34;8.80;99.90
33699;DHT22;20032;52.436;13.312;2024-02-04T13:02:03;8.80;99.90
33699;DHT22;20032;52.436;13.312;2024-02-04T13:04:39;8.80;99.90
33699;DHT22;20032;52.436;13.312;2024-02-04T13:07:09;8.80;99.90
33699;DHT22;20032;52.436;13.312;2024-02-04T13:09:35;8.90;99.90
33699;DHT22;20032;52.436;13.312;2024-02-04T13:12:10;8.90;99.90
33699;DHT22;20032;52.436;13.312;2024-02-04T13:14:36;8.90;99.90
33699;DHT22;20032;52.436;13.312;2024-02-04T13:17:03;8.90;99.90
33699;DHT22;20032;52.436;13.312;2024-02-04T13:19:38;8.90;99.90
33699;DHT22;20032;52.436;13.312;2024-02-04T13:22:04;8.80;99.90
33699;DHT22;20032;52.436;13.312;2024-02-04T13:24:32;8.80;99.90
33699;DHT22;20032;52.436;13.312;2024-02-04T13:26:58;8.90;99.90
33699;DHT22;20032;52.436;13.312;2024-02-04T13:29:26;8.90;99.90
33699;DHT22;20032;52.436;13.312;2024-02-04T13:31:51;8.90;99.90
33699;DHT22;20032;52.436;13.312;2024-02-04T13:34:18;8.90;99.90
33699;DHT22;20032;52.436;13.312;2024-02-04T13:36:45;8.80;99.90
33699;DHT22;20032;52.436;13.312;2024-02-04T13:39:11;8.80;99.90
33699;DHT22;20032;52.436;13.312;2024-02-04T13:41:39;8.80;99.90
33699;DHT22;20032;52.436;13.312;2024-02-04T13:44:05;8.80;99.90
33699;DHT22;20032;52.436;13.312;2024-02-04T13:46:32;8.80;99.90
33699;DHT22;20032;52.436;13.312;2024-02-04T13:48:57;8.80;99.90
33699;DHT22;20032;52.436;13.312;2024-02-04T13:51:23;8.80;99.90
33699;DHT22;20032;52.436;13.312;2024-02-04T13:53:48;8.80;99.90
33699;DHT22;20032;52.436;13.312;2024-02-04T13:56:14;8.80;99.90
33699;DHT22;20032;52.436;13.312;2024-02-04T13:58:41;8.80;99.90
33699;DHT22;20032;52.436;13.312;2024-02-04T14:01:06;8.80;99.90
33699;DHT22;20032;52.436;13.312;2024-02-04T14:03:32;8.80;99.90
33699;DHT22;20032;52.436;13.312;2024-02-04T14:05:57;8.70;99.90
33699;DHT22;20032;52.436;13.312;2024-02-04T14:08:23;8.70;99.90
33699;DHT22;20032;52.436;13.312;2024-02-04T14:10:49;8.80;99.90
33699;DHT22;20032;52.436;13.312;2024-02-04T14:13:15;8.80;99.90
33699;DHT22;20032;52.436;13.312;2024-02-04T14:15:41;8.80;99.90
33699;DHT22;20032;52.436;13.312;2024-02-04T14:18:06;8.70;99.90
33699;DHT22;20032;52.436;13.312;2024-02-04T14:20:32;8.80;99.90
33699;DHT22;20032;52.436;13.312;2024-02-04T14:22:57;8.80;99.90
33699;DHT22;20032;52.436;13.312;2024-02-04T14:25:24;8.70;99.90
33699;DHT22;20032;52.436;13.312;2024-02-04T14:27:50;8.70;99.90
33699;DHT22;20032;52.436;13.312;2024-02-04T14:30:16;8.80;99.90
33699;DHT22;20032;52.436;13.312;2024-02-04T14:32:42;8.80;99.90
33699;DHT22;20032;52.436;13.312;2024-02-04T14:35:09;8.70;99.90
33699;DHT22;20032;52.436;13.312;2024-02-04T14:37:37;8.70;99.90
33699;DHT22;20032;52.436;13.312;2024-02-04T14:40:06;8.70;99.90
33699;DHT22;20032;52.436;13.312;2024-02-04T14:42:32;8.70;99.90
33699;DHT22;20032;52.436;13.312;2024-02-04T14:44:58;8.70;99.90
33699;DHT22;20032;52.436;13.312;2024-02-04T14:47:27;8.70;99.90
33699;DHT22;20032;52.436;13.312;2024-02-04T14:49:53;8.70;99.90
33699;DHT22;20032;52.436;13.312;2024-02-04T14:52:19;8.70;99.90
33699;DHT22;20032;52.436;13.312;2024-02-04T14:54:44;8.70;99.90
33699;DHT22;20032;52.436;13.312;2024-02-04T14:57:10;8.70;99.90
33699;DHT22;20032;52.436;13.312;2024-02-04T14:59:36;8.70;99.90
33699;DHT22;20032;52.436;13.312;2024-02-04T15:02:04;8.70;99.90
33699;DHT22;20032;52.436;13.312;2024-02-04T15:04:31;8.70;99.90
33699;DHT22;20032;52.436;13.312;2024-02-04T15:06:58;8.70;99.90
33699;DHT22;20032;52.436;13.312;2024-02-04T15:09:23;8.70;99.90
33699;DHT22;20032;52.436;13.312;2024-02-04T15:11:49;8.80;99.90
33699;DHT22;20032;52.436;13.312;2024-02-04T15:14:17;8.80;99.90
33699;DHT22;20032;52.436;13.312;2024-02-04T15:16:43;8.80;99.90
33699;DHT22;20032;52.436;13.312;2024-02-04T15:19:10;8.80;99.90
33699;DHT22;20032;52.436;13.312;2024-02-04T15:21:36;8.80;99.90
33699;DHT22;20032;52.436;13.312;2024-02-04T15:24:11;8.80;99.90
33699;DHT22;20032;52.436;13.312;2024-02-04T15:26:37;8.70;99.90
33699;DHT22;20032;52.436;13.312;2024-02-04T15:29:13;8.70;99.90